createdAt,value
2019-04-03T00:00:40.393Z,80.30
2019-04-03T00:03:07.677Z,80.30
2019-04-03T00:05:35.503Z,80.30
2019-04-03T00:08:05.975Z,80.20
2019-04-03T00:10:32.427Z,80.00
2019-04-03T00:12:59.616Z,80.30
2019-04-03T00:15:26.803Z,80.20
2019-04-03T00:17:54.147Z,79.60
2019-04-03T00:20:21.608Z,78.50
2019-04-03T00:22:49.900Z,78.70
2019-04-03T00:25:18.161Z,78.50
2019-04-03T00:27:45.540Z,78.80
2019-04-03T00:30:13.388Z,78.70
2019-04-03T00:32:40.601Z,78.80
2019-04-03T00:35:08.132Z,79.00
2019-04-03T00:37:35.508Z,79.00
2019-04-03T00:40:03.301Z,78.60
2019-04-03T00:42:30.513Z,79.00
2019-04-03T00:44:57.705Z,78.60
2019-04-03T00:47:25.742Z,78.80
2019-04-03T00:49:53.232Z,78.40
2019-04-03T00:52:20.544Z,78.40
2019-04-03T00:54:47.758Z,78.60
2019-04-03T00:57:15.014Z,78.40
2019-04-03T00:59:42.700Z,78.70
2019-04-03T01:02:09.888Z,79.20
2019-04-03T01:04:37.196Z,79.30
2019-04-03T01:07:04.570Z,79.80
2019-04-03T01:09:31.913Z,80.20
2019-04-03T01:12:00.913Z,80.80
2019-04-03T01:14:28.241Z,80.40
2019-04-03T01:16:55.475Z,81.40
2019-04-03T01:19:22.818Z,80.70
2019-04-03T01:21:50.033Z,80.90
2019-04-03T01:24:17.257Z,81.40
2019-04-03T01:26:44.472Z,81.60
2019-04-03T01:29:12.631Z,81.60
2019-04-03T01:31:40.089Z,81.40
2019-04-03T01:34:07.288Z,81.60
2019-04-03T01:36:34.505Z,81.60
2019-04-03T01:39:01.712Z,81.90
2019-04-03T01:41:28.962Z,81.80
2019-04-03T01:43:56.427Z,82.10
2019-04-03T01:46:23.727Z,82.40
2019-04-03T01:48:51.046Z,83.00
2019-04-03T01:51:18.253Z,83.50
2019-04-03T01:53:45.484Z,82.90
2019-04-03T01:56:12.701Z,83.30
2019-04-03T01:58:39.966Z,83.10
2019-04-03T02:01:08.011Z,83.30
2019-04-03T02:03:36.015Z,83.60
2019-04-03T02:06:03.282Z,83.20
2019-04-03T02:08:30.505Z,82.80
2019-04-03T02:10:58.657Z,83.50
2019-04-03T02:13:25.878Z,83.50
2019-04-03T02:15:53.160Z,83.60
2019-04-03T02:18:20.496Z,83.10
2019-04-03T02:20:47.700Z,83.00
2019-04-03T02:23:15.082Z,83.00
2019-04-03T02:25:42.344Z,83.00
2019-04-03T02:28:09.712Z,83.80
2019-04-03T02:30:37.198Z,83.40
2019-04-03T02:33:04.401Z,82.70
2019-04-03T02:35:31.822Z,82.60
2019-04-03T02:37:59.199Z,83.10
2019-04-03T02:40:26.480Z,83.10
2019-04-03T02:42:53.769Z,83.60
2019-04-03T02:45:23.925Z,83.60
2019-04-03T02:47:50.372Z,83.50
2019-04-03T02:50:23.198Z,84.20
2019-04-03T02:52:50.615Z,84.30
2019-04-03T02:55:17.905Z,84.30
2019-04-03T02:57:48.748Z,84.20
2019-04-03T03:00:14.925Z,83.30
2019-04-03T03:02:45.410Z,83.80
2019-04-03T03:05:11.427Z,84.30
2019-04-03T03:07:39.081Z,84.60
2019-04-03T03:10:07.190Z,84.30
2019-04-03T03:12:36.741Z,84.50
2019-04-03T03:15:05.468Z,85.70
2019-04-03T03:17:34.010Z,85.80
2019-04-03T03:20:06.986Z,86.30
2019-04-03T03:22:34.475Z,86.50
2019-04-03T03:25:02.425Z,86.70
2019-04-03T03:27:30.287Z,87.10
2019-04-03T03:29:59.723Z,87.10
2019-04-03T03:32:32.332Z,87.00
2019-04-03T03:35:09.594Z,86.00
2019-04-03T03:37:26.016Z,87.30
2019-04-03T03:39:54.430Z,87.20
2019-04-03T03:42:22.968Z,87.20
2019-04-03T03:44:52.182Z,87.80
2019-04-03T03:47:19.810Z,88.10
2019-04-03T03:49:49.618Z,87.60
2019-04-03T03:52:17.517Z,87.30
2019-04-03T03:54:45.322Z,87.90
2019-04-03T03:57:13.808Z,87.40
2019-04-03T03:59:41.834Z,88.50
2019-04-03T04:02:09.216Z,88.10
2019-04-03T04:04:36.435Z,87.30
2019-04-03T04:07:04.506Z,87.80
2019-04-03T04:09:32.320Z,88.70
2019-04-03T04:11:59.927Z,89.60
2019-04-03T04:14:28.545Z,89.40
2019-04-03T04:16:56.050Z,89.00
2019-04-03T04:19:23.542Z,89.20
2019-04-03T04:21:51.635Z,89.40
2019-04-03T04:24:18.867Z,89.70
2019-04-03T04:26:47.394Z,90.20
2019-04-03T04:29:16.284Z,90.00
2019-04-03T04:31:44.374Z,89.10
2019-04-03T04:34:11.911Z,88.80
2019-04-03T04:36:39.274Z,89.20
2019-04-03T04:39:07.357Z,89.40
2019-04-03T04:41:34.789Z,88.60
2019-04-03T04:44:02.004Z,87.80
2019-04-03T04:46:29.201Z,88.80
2019-04-03T04:48:56.409Z,89.30
2019-04-03T04:51:25.371Z,89.30
2019-04-03T04:53:52.853Z,89.10
2019-04-03T04:56:20.064Z,89.20
2019-04-03T04:58:47.281Z,89.10
2019-04-03T05:01:17.058Z,88.90
2019-04-03T05:03:43.562Z,88.70
2019-04-03T05:06:11.187Z,88.50
2019-04-03T05:08:38.560Z,89.20
2019-04-03T05:11:07.490Z,89.40
2019-04-03T05:13:34.849Z,89.50
2019-04-03T05:16:02.940Z,89.10
2019-04-03T05:18:30.157Z,89.20
2019-04-03T05:20:57.530Z,89.30
2019-04-03T05:23:25.606Z,89.20
2019-04-03T05:25:53.460Z,88.80
2019-04-03T05:28:20.665Z,89.10
2019-04-03T05:30:47.876Z,89.10
2019-04-03T05:33:15.093Z,88.80
2019-04-03T05:35:42.319Z,88.90
2019-04-03T05:38:09.604Z,89.40
2019-04-03T05:40:36.884Z,89.50
2019-04-03T05:43:04.227Z,90.00
2019-04-03T05:45:31.432Z,90.20
2019-04-03T05:47:58.640Z,90.40
2019-04-03T05:50:26.359Z,90.50
2019-04-03T05:52:54.507Z,90.50
2019-04-03T05:55:22.067Z,90.80
2019-04-03T05:57:49.287Z,90.60
2019-04-03T06:00:16.489Z,90.60
2019-04-03T06:02:44.154Z,90.30
2019-04-03T06:05:12.811Z,89.40
2019-04-03T06:07:40.917Z,88.40
2019-04-03T06:10:08.460Z,87.60
2019-04-03T06:12:37.368Z,86.80
2019-04-03T06:15:09.231Z,86.30
2019-04-03T06:17:37.365Z,86.00
2019-04-03T06:20:05.029Z,85.00
2019-04-03T06:22:32.397Z,81.90
2019-04-03T06:25:02.738Z,81.00
2019-04-03T06:27:29.925Z,80.20
2019-04-03T06:29:57.156Z,80.00
2019-04-03T06:32:25.029Z,79.20
2019-04-03T06:34:52.396Z,79.80
2019-04-03T06:37:20.162Z,79.80
2019-04-03T06:39:48.886Z,80.90
2019-04-03T06:42:16.429Z,78.70
2019-04-03T06:44:43.808Z,78.00
2019-04-03T06:47:11.138Z,77.90
2019-04-03T06:49:40.272Z,77.60
2019-04-03T06:52:07.629Z,75.00
2019-04-03T06:54:35.194Z,74.40
2019-04-03T06:57:02.516Z,72.30
2019-04-03T06:59:29.720Z,71.80
2019-04-03T07:01:57.051Z,71.70
2019-04-03T07:04:24.339Z,71.30
2019-04-03T07:06:51.548Z,71.10
2019-04-03T07:09:23.500Z,70.60
2019-04-03T07:11:47.868Z,70.90
2019-04-03T07:14:15.081Z,71.60
2019-04-03T07:16:42.286Z,72.40
2019-04-03T07:19:10.421Z,71.40
2019-04-03T07:21:37.877Z,70.60
2019-04-03T07:24:05.422Z,72.00
2019-04-03T07:26:35.120Z,70.70
2019-04-03T07:29:01.900Z,71.20
2019-04-03T07:31:29.108Z,70.40
2019-04-03T07:33:58.434Z,70.70
2019-04-03T07:36:25.733Z,70.10
2019-04-03T07:38:53.086Z,70.90
2019-04-03T07:41:22.091Z,70.30
2019-04-03T07:43:49.465Z,71.00
2019-04-03T07:46:16.648Z,72.10
2019-04-03T07:48:43.863Z,73.20
2019-04-03T07:51:12.929Z,71.60
2019-04-03T07:53:40.233Z,71.90
2019-04-03T07:56:07.421Z,73.30
2019-04-03T07:58:34.621Z,73.50
2019-04-03T08:01:01.816Z,73.60
2019-04-03T08:03:29.152Z,73.50
2019-04-03T08:05:56.843Z,71.70
2019-04-03T08:08:24.792Z,71.60
2019-04-03T08:10:52.002Z,73.30
2019-04-03T08:13:19.204Z,74.00
2019-04-03T08:15:46.599Z,73.60
2019-04-03T08:18:13.904Z,72.30
2019-04-03T08:20:41.129Z,72.20
2019-04-03T08:23:08.462Z,71.90
2019-04-03T08:25:36.136Z,72.90
2019-04-03T08:28:03.625Z,69.90
2019-04-03T08:30:30.823Z,72.60
2019-04-03T08:32:58.050Z,73.80
2019-04-03T08:35:25.544Z,73.70
2019-04-03T08:37:52.904Z,73.70
2019-04-03T08:40:21.026Z,74.60
2019-04-03T08:42:48.670Z,74.90
2019-04-03T08:45:16.315Z,74.80
2019-04-03T08:47:46.147Z,75.10
2019-04-03T08:50:13.044Z,75.70
2019-04-03T08:52:40.813Z,74.70
2019-04-03T08:55:12.538Z,73.80
2019-04-03T08:57:38.720Z,74.80
2019-04-03T09:00:06.526Z,73.50
2019-04-03T09:02:33.740Z,72.00
2019-04-03T09:05:01.071Z,72.40
2019-04-03T09:07:28.349Z,72.20
2019-04-03T09:09:55.652Z,72.10
2019-04-03T09:12:23.264Z,72.20
2019-04-03T09:14:50.464Z,72.20
2019-04-03T09:17:17.783Z,72.00
2019-04-03T09:19:45.165Z,72.60
2019-04-03T09:22:12.380Z,72.70
2019-04-03T09:24:39.765Z,73.20
2019-04-03T09:27:08.960Z,72.70
2019-04-03T09:29:36.334Z,72.50
2019-04-03T09:32:03.721Z,73.10
2019-04-03T09:34:33.759Z,72.40
2019-04-03T09:37:00.172Z,70.70
2019-04-03T09:39:27.346Z,71.10
2019-04-03T09:41:54.548Z,71.30
2019-04-03T09:44:24.662Z,71.40
2019-04-03T09:46:51.124Z,72.40
2019-04-03T09:49:18.617Z,72.30
2019-04-03T09:51:46.488Z,71.90
2019-04-03T09:54:14.006Z,71.30
2019-04-03T09:56:57.133Z,71.90
2019-04-03T09:59:10.498Z,72.20
2019-04-03T10:01:37.845Z,71.70
2019-04-03T10:04:05.149Z,71.50
2019-04-03T10:06:32.365Z,72.10
2019-04-03T10:08:59.905Z,71.20
2019-04-03T10:11:27.150Z,71.80
2019-04-03T10:13:54.924Z,71.70
2019-04-03T10:16:23.559Z,72.50
2019-04-03T10:18:50.744Z,71.30
2019-04-03T10:21:19.883Z,72.20
2019-04-03T10:23:47.087Z,71.20
2019-04-03T10:26:14.274Z,71.10
2019-04-03T10:28:42.544Z,70.50
2019-04-03T10:31:10.502Z,70.10
2019-04-03T10:33:37.780Z,70.40
2019-04-03T10:36:04.980Z,69.60
2019-04-03T10:38:32.333Z,69.30
2019-04-03T10:40:59.876Z,69.40
2019-04-03T10:43:27.164Z,69.60
2019-04-03T10:45:54.360Z,68.70
2019-04-03T10:48:21.562Z,69.30
2019-04-03T10:50:48.764Z,68.90
2019-04-03T10:53:15.972Z,69.50
2019-04-03T10:55:43.653Z,69.20
2019-04-03T10:58:11.012Z,69.30
2019-04-03T11:00:38.397Z,69.80
2019-04-03T11:03:06.264Z,70.10
2019-04-03T11:05:33.825Z,70.80
2019-04-03T11:08:01.417Z,70.30
2019-04-03T11:10:28.889Z,70.10
2019-04-03T11:12:56.721Z,70.80
2019-04-03T11:15:24.130Z,70.70
2019-04-03T11:17:51.505Z,70.90
2019-04-03T11:20:19.491Z,70.10
2019-04-03T11:22:48.326Z,70.20
2019-04-03T11:25:16.207Z,69.90
2019-04-03T11:27:45.133Z,69.50
2019-04-03T11:30:18.244Z,68.50
2019-04-03T11:32:44.152Z,68.10
2019-04-03T11:35:11.726Z,69.60
2019-04-03T11:37:39.325Z,70.00
2019-04-03T11:40:07.479Z,68.60
2019-04-03T11:42:34.736Z,69.10
2019-04-03T11:45:04.250Z,68.30
2019-04-03T11:47:31.137Z,69.20
2019-04-03T11:49:58.848Z,68.10
2019-04-03T11:52:26.499Z,68.20
2019-04-03T11:54:53.881Z,67.40
2019-04-03T11:57:22.405Z,67.40
2019-04-03T11:59:50.169Z,67.60
2019-04-03T12:02:18.434Z,67.20
2019-04-03T12:04:45.907Z,66.80
2019-04-03T12:07:13.136Z,67.50
2019-04-03T12:09:40.413Z,66.50
2019-04-03T12:12:10.207Z,66.50
2019-04-03T12:14:37.108Z,64.90
2019-04-03T12:17:04.570Z,66.00
2019-04-03T12:19:31.885Z,66.10
2019-04-03T12:21:59.192Z,66.70
2019-04-03T12:24:26.444Z,66.90
2019-04-03T12:26:55.654Z,67.00
2019-04-03T12:29:23.158Z,66.90
2019-04-03T12:31:50.556Z,67.20
2019-04-03T12:34:17.756Z,65.90
2019-04-03T12:36:46.171Z,66.10
2019-04-03T12:39:26.193Z,66.20
2019-04-03T12:41:54.935Z,66.10
2019-04-03T12:44:22.690Z,66.50
2019-04-03T12:46:50.133Z,66.40
2019-04-03T12:49:17.487Z,66.90
2019-04-03T12:51:44.724Z,66.40
2019-04-03T12:54:13.202Z,65.90
2019-04-03T12:56:41.485Z,66.70
2019-04-03T12:59:09.490Z,66.20
2019-04-03T13:01:37.228Z,66.30
2019-04-03T13:04:04.820Z,67.00
2019-04-03T13:06:32.520Z,67.40
2019-04-03T13:08:59.889Z,66.90
2019-04-03T13:11:27.152Z,67.70
2019-04-03T13:13:54.694Z,67.20
2019-04-03T13:16:22.569Z,67.70
2019-04-03T13:18:50.078Z,68.40
2019-04-03T13:21:17.529Z,67.00
2019-04-03T13:23:45.757Z,66.70
2019-04-03T13:26:13.517Z,67.90
2019-04-03T13:28:41.126Z,67.00
2019-04-03T13:31:08.940Z,67.20
2019-04-03T13:33:37.693Z,67.30
2019-04-03T13:36:05.516Z,66.80
2019-04-03T13:38:32.781Z,66.90
2019-04-03T13:41:00.028Z,67.20
2019-04-03T13:43:27.273Z,66.40
2019-04-03T13:45:54.477Z,67.30
2019-04-03T13:48:21.793Z,66.50
2019-04-03T13:50:49.216Z,67.10
2019-04-03T13:53:18.370Z,67.40
2019-04-03T13:55:45.656Z,67.10
2019-04-03T13:58:12.996Z,67.60
2019-04-03T14:00:40.714Z,67.60
2019-04-03T14:03:08.076Z,67.00
2019-04-03T14:05:35.372Z,67.20
2019-04-03T14:08:05.717Z,67.40
2019-04-03T14:10:31.897Z,67.60
2019-04-03T14:12:59.331Z,66.60
2019-04-03T14:15:26.969Z,67.40
2019-04-03T14:17:58.424Z,66.60
2019-04-03T14:20:25.224Z,67.70
2019-04-03T14:22:52.509Z,67.70
2019-04-03T14:25:22.606Z,67.60
2019-04-03T14:27:49.193Z,68.00
2019-04-03T14:30:16.548Z,68.20
2019-04-03T14:32:45.153Z,68.00
2019-04-03T14:35:40.494Z,68.10
2019-04-03T14:37:42.364Z,68.60
2019-04-03T14:40:12.260Z,68.40
2019-04-03T14:42:39.047Z,68.50
2019-04-03T14:45:06.836Z,68.40
2019-04-03T14:47:34.139Z,68.40
2019-04-03T14:50:02.757Z,68.30
2019-04-03T14:52:30.704Z,68.20
2019-04-03T14:55:05.263Z,68.60
2019-04-03T14:57:27.256Z,68.80
2019-04-03T14:59:54.494Z,68.30
2019-04-03T15:02:23.863Z,68.60
2019-04-03T15:04:51.215Z,68.50
2019-04-03T15:07:18.944Z,68.70
2019-04-03T15:09:46.416Z,68.20
2019-04-03T15:12:13.725Z,68.50
2019-04-03T15:14:41.390Z,68.30
2019-04-03T15:17:09.199Z,67.90
2019-04-03T15:19:36.852Z,68.50
2019-04-03T15:22:04.463Z,68.30
2019-04-03T15:24:31.922Z,68.90
2019-04-03T15:26:59.118Z,68.60
2019-04-03T15:29:26.428Z,68.40
2019-04-03T15:31:53.649Z,68.90
2019-04-03T15:34:20.903Z,68.80
2019-04-03T15:36:50.592Z,68.40
2019-04-03T15:39:17.710Z,67.80
2019-04-03T15:41:45.378Z,68.80
2019-04-03T15:44:13.004Z,68.40
2019-04-03T15:46:40.512Z,67.80
2019-04-03T15:49:07.824Z,68.20
2019-04-03T15:51:38.168Z,68.30
2019-04-03T15:54:04.441Z,68.30
2019-04-03T15:56:32.229Z,67.70
2019-04-03T15:58:59.636Z,68.40
2019-04-03T16:01:27.153Z,68.00
2019-04-03T16:03:54.592Z,68.40
2019-04-03T16:06:22.307Z,68.60
2019-04-03T16:08:50.153Z,68.70
2019-04-03T16:11:17.606Z,68.70
2019-04-03T16:13:46.909Z,68.70
2019-04-03T16:16:14.134Z,68.80
2019-04-03T16:18:42.114Z,68.80
2019-04-03T16:21:09.702Z,68.80
2019-04-03T16:23:38.295Z,68.70
2019-04-03T16:26:06.064Z,68.90
2019-04-03T16:28:35.096Z,68.80
2019-04-03T16:31:02.732Z,68.90
2019-04-03T16:33:30.142Z,69.00
2019-04-03T16:35:57.604Z,69.00
2019-04-03T16:38:27.719Z,69.20
2019-04-03T16:40:54.492Z,69.50
2019-04-03T16:43:23.121Z,69.50
2019-04-03T16:45:51.290Z,69.10
2019-04-03T16:48:18.994Z,69.50
2019-04-03T16:50:46.435Z,69.20
2019-04-03T16:53:13.796Z,69.20
2019-04-03T16:55:41.145Z,69.40
2019-04-03T16:58:08.357Z,69.60
2019-04-03T17:00:37.778Z,69.60
2019-04-03T17:03:05.610Z,69.10
2019-04-03T17:05:32.847Z,69.60
2019-04-03T17:08:00.626Z,69.60
2019-04-03T17:10:27.933Z,69.70
2019-04-03T17:12:55.392Z,69.50
2019-04-03T17:15:22.668Z,69.70
2019-04-03T17:17:49.990Z,69.80
2019-04-03T17:20:17.461Z,69.90
2019-04-03T17:22:46.167Z,69.70
2019-04-03T17:25:14.494Z,69.80
2019-04-03T17:27:49.315Z,69.40
2019-04-03T17:30:12.398Z,70.00
2019-04-03T17:32:40.947Z,70.10
2019-04-03T17:35:08.755Z,70.10
2019-04-03T17:37:36.724Z,70.00
2019-04-03T17:40:06.607Z,70.20
2019-04-03T17:42:33.979Z,71.00
2019-04-03T17:45:04.220Z,70.60
2019-04-03T17:47:31.491Z,70.20
2019-04-03T17:49:59.263Z,70.50
2019-04-03T17:52:27.180Z,70.30
2019-04-03T17:54:54.396Z,70.50
2019-04-03T17:57:21.614Z,70.60
2019-04-03T17:59:49.553Z,70.80
2019-04-03T18:02:17.113Z,70.90
2019-04-03T18:04:44.429Z,71.10
2019-04-03T18:07:12.179Z,71.30
2019-04-03T18:09:41.846Z,71.30
2019-04-03T18:12:08.844Z,71.30
2019-04-03T18:14:36.228Z,71.60
2019-04-03T18:17:03.800Z,71.90
2019-04-03T18:19:37.350Z,72.00
2019-04-03T18:22:00.573Z,72.00
2019-04-03T18:24:28.016Z,72.20
2019-04-03T18:26:55.338Z,72.30
2019-04-03T18:29:24.368Z,72.50
2019-04-03T18:31:51.797Z,72.60
2019-04-03T18:34:19.765Z,72.90
2019-04-03T18:36:47.734Z,73.00
2019-04-03T18:39:14.997Z,73.00
2019-04-03T18:41:42.409Z,73.00
2019-04-03T18:44:21.305Z,73.20
2019-04-03T18:46:38.928Z,73.20
2019-04-03T18:49:06.329Z,73.40
2019-04-03T18:51:36.434Z,73.40
2019-04-03T18:54:02.815Z,73.60
2019-04-03T18:56:32.063Z,73.70
2019-04-03T18:58:59.384Z,73.80
2019-04-03T19:01:26.644Z,74.00
2019-04-03T19:03:53.897Z,74.10
2019-04-03T19:06:21.217Z,74.10
2019-04-03T19:08:50.136Z,74.10
2019-04-03T19:11:17.740Z,74.20
2019-04-03T19:13:48.986Z,74.70
2019-04-03T19:16:23.998Z,74.70
2019-04-03T19:18:43.531Z,74.90
2019-04-03T19:21:23.747Z,75.20
2019-04-03T19:23:49.485Z,75.10
2019-04-03T19:26:09.548Z,75.00
2019-04-03T19:28:36.784Z,75.10
2019-04-03T19:31:04.217Z,75.50
2019-04-03T19:33:32.579Z,74.80
2019-04-03T19:35:59.851Z,74.50
2019-04-03T19:38:27.324Z,74.40
2019-04-03T19:40:54.540Z,74.40
2019-04-03T19:43:21.757Z,74.40
2019-04-03T19:45:51.666Z,74.40
2019-04-03T19:48:19.032Z,74.10
2019-04-03T19:50:46.452Z,73.50
2019-04-03T19:53:14.109Z,73.70
2019-04-03T19:55:41.513Z,73.50
2019-04-03T19:58:08.865Z,73.30
2019-04-03T20:00:36.249Z,73.60
2019-04-03T20:03:03.606Z,73.20
2019-04-03T20:05:30.958Z,72.90
2019-04-03T20:07:58.971Z,73.00
2019-04-03T20:10:26.794Z,72.00
2019-04-03T20:12:54.196Z,71.70
2019-04-03T20:15:22.708Z,72.10
2019-04-03T20:17:54.506Z,70.80
2019-04-03T20:20:20.596Z,71.00
2019-04-03T20:22:47.881Z,70.40
2019-04-03T20:25:15.336Z,70.30
2019-04-03T20:27:42.882Z,70.10
2019-04-03T20:30:10.520Z,70.30
2019-04-03T20:32:40.011Z,70.20
2019-04-03T20:35:08.443Z,70.10
2019-04-03T20:37:35.805Z,70.00
2019-04-03T20:40:03.837Z,70.20
2019-04-03T20:42:31.033Z,70.00
2019-04-03T20:44:58.428Z,70.00
2019-04-03T20:47:27.012Z,70.00
2019-04-03T20:49:54.909Z,69.90
2019-04-03T20:52:22.154Z,69.80
2019-04-03T20:54:52.927Z,70.00
2019-04-03T20:57:19.642Z,70.20
2019-04-03T20:59:58.520Z,70.40
2019-04-03T21:02:16.671Z,70.40
2019-04-03T21:04:44.935Z,70.60
2019-04-03T21:07:13.369Z,70.60
2019-04-03T21:09:40.649Z,70.80
2019-04-03T21:12:07.881Z,71.00
2019-04-03T21:14:35.304Z,71.00
2019-04-03T21:17:02.604Z,71.30
2019-04-03T21:19:29.870Z,71.20
2019-04-03T21:21:57.690Z,72.10
2019-04-03T21:24:26.401Z,71.40
2019-04-03T21:26:53.598Z,71.30
2019-04-03T21:29:20.846Z,71.40
2019-04-03T21:31:48.131Z,71.10
2019-04-03T21:34:15.352Z,71.00
2019-04-03T21:36:43.542Z,71.00
2019-04-03T21:39:10.993Z,71.20
2019-04-03T21:41:40.005Z,71.50
2019-04-03T21:44:07.245Z,71.80
2019-04-03T21:46:34.513Z,71.70
2019-04-03T21:49:01.800Z,71.80
2019-04-03T21:51:28.999Z,71.90
2019-04-03T21:53:56.639Z,72.60
2019-04-03T21:56:24.044Z,72.30
2019-04-03T21:58:51.236Z,72.60
2019-04-03T22:01:21.345Z,72.80
2019-04-03T22:03:50.537Z,73.50
2019-04-03T22:06:17.656Z,73.80
2019-04-03T22:08:44.858Z,74.40
2019-04-03T22:11:13.137Z,74.70
2019-04-03T22:13:40.394Z,75.30
2019-04-03T22:16:07.593Z,75.50
2019-04-03T22:18:34.831Z,75.60
2019-04-03T22:21:02.530Z,76.10
2019-04-03T22:23:29.876Z,76.50
2019-04-03T22:25:57.072Z,76.90
2019-04-03T22:28:24.296Z,77.30
2019-04-03T22:30:52.516Z,77.70
2019-04-03T22:33:20.229Z,78.10
2019-04-03T22:35:47.516Z,78.50
2019-04-03T22:38:15.672Z,78.70
2019-04-03T22:40:42.920Z,79.10
2019-04-03T22:43:10.304Z,79.30
2019-04-03T22:45:37.569Z,79.50
2019-04-03T22:48:04.788Z,80.00
2019-04-03T22:50:33.458Z,80.10
2019-04-03T22:53:01.499Z,80.30
2019-04-03T22:55:28.908Z,80.60
2019-04-03T22:57:56.128Z,80.70
2019-04-03T23:00:25.502Z,80.80
2019-04-03T23:02:52.466Z,81.20
2019-04-03T23:05:19.688Z,81.30
2019-04-03T23:07:46.903Z,81.60
2019-04-03T23:10:14.222Z,81.50
2019-04-03T23:12:41.688Z,81.60
2019-04-03T23:15:09.660Z,81.80
2019-04-03T23:17:36.973Z,81.90
2019-04-03T23:20:04.986Z,82.20
2019-04-03T23:22:32.368Z,82.20
2019-04-03T23:25:00.136Z,82.40
2019-04-03T23:27:27.585Z,82.40
2019-04-03T23:29:54.966Z,82.30
2019-04-03T23:32:22.280Z,82.10
2019-04-03T23:34:50.147Z,82.00
2019-04-03T23:37:17.728Z,81.60
2019-04-03T23:39:45.927Z,81.20
2019-04-03T23:42:13.181Z,80.80
2019-04-03T23:44:42.104Z,80.80
2019-04-03T23:47:09.880Z,80.30
2019-04-03T23:49:37.148Z,80.30
2019-04-03T23:52:04.377Z,80.50
2019-04-03T23:54:33.742Z,80.00
2019-04-03T23:57:01.076Z,80.10
2019-04-03T23:59:28.471Z,79.90
